Terminal Aerodrome Forecast
Issued by NWS

Current Version | Previous Version | Text Only | Print | Product List | Glossary On
Versions: 1 2 3 4 5 6 7 8 9 10 11 12
000
FTUS42 KMLB 302324
TAFSFB
TAF
KSFB 302324Z 3100/3124 25007KT P6SM FEW250
     FM310200 28005KT P6SM SCT050 SCT250
     FM311800 27010KT P6SM SCT050 BKN250=

USA.gov is the U.S. government's official web portal to all federal, state and local government web resources and services.